sensor_id;sensor_type;location;lat;lon;timestamp;P1;durP1;ratioP1;P2;durP2;ratioP2
63005;SDS011;53704;52.532;6.426;2023-11-21T00:02:11;53.00;;;23.02;;
63005;SDS011;53704;52.532;6.426;2023-11-21T00:04:37;55.58;;;23.73;;
63005;SDS011;53704;52.532;6.426;2023-11-21T00:07:04;53.60;;;24.05;;
63005;SDS011;53704;52.532;6.426;2023-11-21T00:09:31;56.30;;;22.90;;
63005;SDS011;53704;52.532;6.426;2023-11-21T00:11:57;45.28;;;22.45;;
63005;SDS011;53704;52.532;6.426;2023-11-21T00:14:24;42.20;;;22.90;;
63005;SDS011;53704;52.532;6.426;2023-11-21T00:16:52;49.38;;;24.25;;
63005;SDS011;53704;52.532;6.426;2023-11-21T00:19:18;45.28;;;23.33;;
63005;SDS011;53704;52.532;6.426;2023-11-21T00:21:43;55.05;;;24.48;;
63005;SDS011;53704;52.532;6.426;2023-11-21T00:24:10;60.10;;;23.80;;
63005;SDS011;53704;52.532;6.426;2023-11-21T00:26:39;51.05;;;23.33;;
63005;SDS011;53704;52.532;6.426;2023-11-21T00:29:05;62.17;;;24.98;;
63005;SDS011;53704;52.532;6.426;2023-11-21T00:31:33;51.20;;;22.85;;
63005;SDS011;53704;52.532;6.426;2023-11-21T00:34:02;52.92;;;22.35;;
63005;SDS011;53704;52.532;6.426;2023-11-21T00:36:29;56.15;;;21.90;;
63005;SDS011;53704;52.532;6.426;2023-11-21T00:38:54;48.67;;;23.00;;
63005;SDS011;53704;52.532;6.426;2023-11-21T00:41:21;50.25;;;22.60;;
63005;SDS011;53704;52.532;6.426;2023-11-21T00:43:46;63.70;;;23.45;;
63005;SDS011;53704;52.532;6.426;2023-11-21T00:46:11;52.65;;;24.83;;
63005;SDS011;53704;52.532;6.426;2023-11-21T00:48:37;51.78;;;24.23;;
63005;SDS011;53704;52.532;6.426;2023-11-21T00:51:02;66.18;;;24.63;;
63005;SDS011;53704;52.532;6.426;2023-11-21T00:53:28;61.50;;;25.40;;
63005;SDS011;53704;52.532;6.426;2023-11-21T00:55:54;58.92;;;25.65;;
63005;SDS011;53704;52.532;6.426;2023-11-21T00:58:25;63.28;;;24.70;;
63005;SDS011;53704;52.532;6.426;2023-11-21T01:00:51;66.25;;;26.92;;
63005;SDS011;53704;52.532;6.426;2023-11-21T01:03:17;62.05;;;25.77;;
63005;SDS011;53704;52.532;6.426;2023-11-21T01:05:42;62.60;;;26.60;;
63005;SDS011;53704;52.532;6.426;2023-11-21T01:08:07;69.22;;;27.60;;
63005;SDS011;53704;52.532;6.426;2023-11-21T01:10:33;55.95;;;25.17;;
63005;SDS011;53704;52.532;6.426;2023-11-21T01:12:59;62.63;;;27.42;;
63005;SDS011;53704;52.532;6.426;2023-11-21T01:15:25;72.93;;;26.45;;
63005;SDS011;53704;52.532;6.426;2023-11-21T01:17:51;65.40;;;26.17;;
63005;SDS011;53704;52.532;6.426;2023-11-21T01:20:17;70.75;;;27.42;;
63005;SDS011;53704;52.532;6.426;2023-11-21T01:22:43;63.63;;;27.13;;
63005;SDS011;53704;52.532;6.426;2023-11-21T01:25:08;67.88;;;26.92;;
63005;SDS011;53704;52.532;6.426;2023-11-21T01:27:34;63.65;;;25.73;;
63005;SDS011;53704;52.532;6.426;2023-11-21T01:30:01;58.50;;;25.55;;
63005;SDS011;53704;52.532;6.426;2023-11-21T01:32:27;61.05;;;25.23;;
63005;SDS011;53704;52.532;6.426;2023-11-21T01:34:53;57.03;;;24.95;;
63005;SDS011;53704;52.532;6.426;2023-11-21T01:37:20;72.88;;;26.65;;
63005;SDS011;53704;52.532;6.426;2023-11-21T01:39:46;64.88;;;26.92;;
63005;SDS011;53704;52.532;6.426;2023-11-21T01:42:12;58.92;;;24.80;;
63005;SDS011;53704;52.532;6.426;2023-11-21T01:44:38;57.45;;;24.58;;
63005;SDS011;53704;52.532;6.426;2023-11-21T01:47:07;79.20;;;27.35;;
63005;SDS011;53704;52.532;6.426;2023-11-21T01:49:34;58.25;;;24.60;;
63005;SDS011;53704;52.532;6.426;2023-11-21T01:52:00;54.72;;;24.23;;
63005;SDS011;53704;52.532;6.426;2023-11-21T01:54:26;76.63;;;28.88;;
63005;SDS011;53704;52.532;6.426;2023-11-21T01:56:56;66.43;;;25.52;;
63005;SDS011;53704;52.532;6.426;2023-11-21T01:59:34;59.03;;;26.10;;
63005;SDS011;53704;52.532;6.426;2023-11-21T02:02:04;79.60;;;24.65;;
63005;SDS011;53704;52.532;6.426;2023-11-21T02:04:34;58.80;;;24.85;;
63005;SDS011;53704;52.532;6.426;2023-11-21T02:07:01;58.78;;;25.38;;
63005;SDS011;53704;52.532;6.426;2023-11-21T02:09:30;84.78;;;27.30;;
63005;SDS011;53704;52.532;6.426;2023-11-21T02:11:56;57.42;;;25.83;;
63005;SDS011;53704;52.532;6.426;2023-11-21T02:14:23;57.72;;;25.75;;
63005;SDS011;53704;52.532;6.426;2023-11-21T02:16:51;72.88;;;26.55;;
63005;SDS011;53704;52.532;6.426;2023-11-21T02:19:19;60.45;;;24.27;;
63005;SDS011;53704;52.532;6.426;2023-11-21T02:21:49;64.85;;;25.02;;
63005;SDS011;53704;52.532;6.426;2023-11-21T02:24:18;65.53;;;26.60;;
63005;SDS011;53704;52.532;6.426;2023-11-21T02:26:47;59.78;;;26.02;;
63005;SDS011;53704;52.532;6.426;2023-11-21T02:29:19;68.82;;;25.70;;
63005;SDS011;53704;52.532;6.426;2023-11-21T02:31:47;58.72;;;23.52;;
63005;SDS011;53704;52.532;6.426;2023-11-21T02:34:14;69.35;;;26.25;;
63005;SDS011;53704;52.532;6.426;2023-11-21T02:36:40;63.53;;;25.73;;
63005;SDS011;53704;52.532;6.426;2023-11-21T02:39:07;64.47;;;25.42;;
63005;SDS011;53704;52.532;6.426;2023-11-21T02:41:33;67.03;;;25.95;;
63005;SDS011;53704;52.532;6.426;2023-11-21T02:43:59;63.63;;;24.48;;
63005;SDS011;53704;52.532;6.426;2023-11-21T02:46:25;66.53;;;26.52;;
63005;SDS011;53704;52.532;6.426;2023-11-21T02:48:51;60.80;;;25.33;;
63005;SDS011;53704;52.532;6.426;2023-11-21T02:51:18;68.10;;;26.10;;
63005;SDS011;53704;52.532;6.426;2023-11-21T02:53:47;75.55;;;26.45;;
63005;SDS011;53704;52.532;6.426;2023-11-21T02:56:12;62.40;;;27.00;;
63005;SDS011;53704;52.532;6.426;2023-11-21T02:58:41;66.28;;;26.08;;
63005;SDS011;53704;52.532;6.426;2023-11-21T03:01:08;59.83;;;24.05;;
63005;SDS011;53704;52.532;6.426;2023-11-21T03:03:34;66.50;;;28.17;;
63005;SDS011;53704;52.532;6.426;2023-11-21T03:06:00;57.13;;;25.23;;
63005;SDS011;53704;52.532;6.426;2023-11-21T03:08:25;55.13;;;25.67;;
63005;SDS011;53704;52.532;6.426;2023-11-21T03:10:51;58.80;;;25.10;;
63005;SDS011;53704;52.532;6.426;2023-11-21T03:13:17;73.75;;;26.52;;
63005;SDS011;53704;52.532;6.426;2023-11-21T03:15:42;55.05;;;24.20;;
63005;SDS011;53704;52.532;6.426;2023-11-21T03:18:08;68.78;;;24.90;;
63005;SDS011;53704;52.532;6.426;2023-11-21T03:20:33;61.33;;;25.00;;
63005;SDS011;53704;52.532;6.426;2023-11-21T03:23:00;67.50;;;26.40;;
63005;SDS011;53704;52.532;6.426;2023-11-21T03:25:25;63.33;;;25.90;;
63005;SDS011;53704;52.532;6.426;2023-11-21T03:27:51;70.57;;;26.90;;
63005;SDS011;53704;52.532;6.426;2023-11-21T03:30:17;59.50;;;25.00;;
63005;SDS011;53704;52.532;6.426;2023-11-21T03:32:42;73.72;;;25.63;;
63005;SDS011;53704;52.532;6.426;2023-11-21T03:35:08;65.90;;;26.40;;
63005;SDS011;53704;52.532;6.426;2023-11-21T03:37:33;52.22;;;24.27;;
63005;SDS011;53704;52.532;6.426;2023-11-21T03:39:58;59.83;;;22.98;;
63005;SDS011;53704;52.532;6.426;2023-11-21T03:42:24;63.45;;;26.67;;
63005;SDS011;53704;52.532;6.426;2023-11-21T03:44:52;72.43;;;26.35;;
63005;SDS011;53704;52.532;6.426;2023-11-21T03:47:18;60.33;;;24.73;;
63005;SDS011;53704;52.532;6.426;2023-11-21T03:49:44;69.57;;;24.83;;
63005;SDS011;53704;52.532;6.426;2023-11-21T03:52:10;64.45;;;25.70;;
63005;SDS011;53704;52.532;6.426;2023-11-21T03:54:36;61.53;;;24.17;;
63005;SDS011;53704;52.532;6.426;2023-11-21T03:57:02;64.50;;;24.52;;
63005;SDS011;53704;52.532;6.426;2023-11-21T03:59:28;64.78;;;24.55;;
63005;SDS011;53704;52.532;6.426;2023-11-21T04:01:54;54.25;;;25.73;;
63005;SDS011;53704;52.532;6.426;2023-11-21T04:04:21;67.82;;;26.33;;
63005;SDS011;53704;52.532;6.426;2023-11-21T04:06:47;67.90;;;24.40;;
63005;SDS011;53704;52.532;6.426;2023-11-21T04:09:13;59.28;;;25.65;;
63005;SDS011;53704;52.532;6.426;2023-11-21T04:11:38;63.95;;;24.00;;
63005;SDS011;53704;52.532;6.426;2023-11-21T04:14:04;55.10;;;22.00;;
63005;SDS011;53704;52.532;6.426;2023-11-21T04:16:29;58.20;;;26.05;;
63005;SDS011;53704;52.532;6.426;2023-11-21T04:18:55;49.20;;;23.63;;
63005;SDS011;53704;52.532;6.426;2023-11-21T04:21:20;54.42;;;22.90;;
63005;SDS011;53704;52.532;6.426;2023-11-21T04:23:48;77.75;;;25.45;;
63005;SDS011;53704;52.532;6.426;2023-11-21T04:26:13;63.58;;;23.00;;
63005;SDS011;53704;52.532;6.426;2023-11-21T04:28:38;63.45;;;24.33;;
63005;SDS011;53704;52.532;6.426;2023-11-21T04:31:04;54.95;;;23.40;;
63005;SDS011;53704;52.532;6.426;2023-11-21T04:33:30;62.58;;;24.67;;
63005;SDS011;53704;52.532;6.426;2023-11-21T04:35:56;62.53;;;24.17;;
63005;SDS011;53704;52.532;6.426;2023-11-21T04:38:22;65.78;;;24.90;;
63005;SDS011;53704;52.532;6.426;2023-11-21T04:40:47;56.78;;;22.15;;
63005;SDS011;53704;52.532;6.426;2023-11-21T04:43:12;65.63;;;24.92;;
63005;SDS011;53704;52.532;6.426;2023-11-21T04:45:38;76.85;;;22.38;;
63005;SDS011;53704;52.532;6.426;2023-11-21T04:48:05;64.05;;;23.50;;
63005;SDS011;53704;52.532;6.426;2023-11-21T04:50:31;57.50;;;24.30;;
63005;SDS011;53704;52.532;6.426;2023-11-21T04:52:57;48.78;;;22.00;;
63005;SDS011;53704;52.532;6.426;2023-11-21T04:55:22;45.67;;;22.08;;
63005;SDS011;53704;52.532;6.426;2023-11-21T04:57:48;59.05;;;22.27;;
63005;SDS011;53704;52.532;6.426;2023-11-21T05:00:13;51.90;;;22.73;;
63005;SDS011;53704;52.532;6.426;2023-11-21T05:02:40;60.38;;;24.33;;
63005;SDS011;53704;52.532;6.426;2023-11-21T05:05:06;74.63;;;24.80;;
63005;SDS011;53704;52.532;6.426;2023-11-21T05:07:32;75.38;;;23.65;;
63005;SDS011;53704;52.532;6.426;2023-11-21T05:10:00;52.20;;;21.83;;
63005;SDS011;53704;52.532;6.426;2023-11-21T05:12:30;47.03;;;20.25;;
63005;SDS011;53704;52.532;6.426;2023-11-21T05:15:05;69.47;;;23.00;;
63005;SDS011;53704;52.532;6.426;2023-11-21T05:17:35;64.55;;;22.52;;
63005;SDS011;53704;52.532;6.426;2023-11-21T05:20:02;48.30;;;20.20;;
63005;SDS011;53704;52.532;6.426;2023-11-21T05:22:29;62.67;;;23.63;;
63005;SDS011;53704;52.532;6.426;2023-11-21T05:24:55;50.83;;;21.45;;
63005;SDS011;53704;52.532;6.426;2023-11-21T05:27:20;41.35;;;19.73;;
63005;SDS011;53704;52.532;6.426;2023-11-21T05:29:46;42.17;;;20.65;;
63005;SDS011;53704;52.532;6.426;2023-11-21T05:32:11;65.53;;;22.52;;
63005;SDS011;53704;52.532;6.426;2023-11-21T05:34:37;93.05;;;22.85;;
63005;SDS011;53704;52.532;6.426;2023-11-21T05:37:02;56.85;;;21.17;;
63005;SDS011;53704;52.532;6.426;2023-11-21T05:39:30;49.00;;;19.77;;
63005;SDS011;53704;52.532;6.426;2023-11-21T05:41:55;57.58;;;21.35;;
63005;SDS011;53704;52.532;6.426;2023-11-21T05:44:22;45.35;;;21.10;;
63005;SDS011;53704;52.532;6.426;2023-11-21T05:46:50;56.80;;;22.77;;
63005;SDS011;53704;52.532;6.426;2023-11-21T05:49:15;44.35;;;19.83;;
63005;SDS011;53704;52.532;6.426;2023-11-21T05:51:41;40.15;;;20.42;;
63005;SDS011;53704;52.532;6.426;2023-11-21T05:54:07;57.38;;;22.60;;
63005;SDS011;53704;52.532;6.426;2023-11-21T05:56:33;40.40;;;20.30;;
63005;SDS011;53704;52.532;6.426;2023-11-21T05:58:59;49.67;;;21.48;;
63005;SDS011;53704;52.532;6.426;2023-11-21T06:01:25;39.58;;;20.42;;
63005;SDS011;53704;52.532;6.426;2023-11-21T06:03:53;51.13;;;22.05;;
63005;SDS011;53704;52.532;6.426;2023-11-21T06:06:20;43.13;;;21.13;;
63005;SDS011;53704;52.532;6.426;2023-11-21T06:08:48;59.78;;;21.20;;
63005;SDS011;53704;52.532;6.426;2023-11-21T06:11:14;34.55;;;19.20;;
63005;SDS011;53704;52.532;6.426;2023-11-21T06:13:40;39.38;;;18.10;;
63005;SDS011;53704;52.532;6.426;2023-11-21T06:16:05;63.05;;;20.65;;
63005;SDS011;53704;52.532;6.426;2023-11-21T06:18:31;49.55;;;19.02;;
63005;SDS011;53704;52.532;6.426;2023-11-21T06:20:56;48.90;;;21.30;;
63005;SDS011;53704;52.532;6.426;2023-11-21T06:23:22;64.05;;;23.08;;
63005;SDS011;53704;52.532;6.426;2023-11-21T06:25:47;58.75;;;21.63;;
63005;SDS011;53704;52.532;6.426;2023-11-21T06:28:13;46.42;;;21.38;;
63005;SDS011;53704;52.532;6.426;2023-11-21T06:30:42;52.65;;;22.25;;
63005;SDS011;53704;52.532;6.426;2023-11-21T06:33:09;63.03;;;22.48;;
63005;SDS011;53704;52.532;6.426;2023-11-21T06:35:34;44.40;;;19.88;;
63005;SDS011;53704;52.532;6.426;2023-11-21T06:38:00;63.58;;;23.52;;
63005;SDS011;53704;52.532;6.426;2023-11-21T06:40:25;64.57;;;21.80;;
63005;SDS011;53704;52.532;6.426;2023-11-21T06:42:51;57.22;;;22.60;;
63005;SDS011;53704;52.532;6.426;2023-11-21T06:45:16;52.72;;;21.60;;
63005;SDS011;53704;52.532;6.426;2023-11-21T06:47:42;96.13;;;25.73;;
63005;SDS011;53704;52.532;6.426;2023-11-21T06:50:08;58.88;;;23.90;;
63005;SDS011;53704;52.532;6.426;2023-11-21T06:52:34;72.97;;;25.92;;
63005;SDS011;53704;52.532;6.426;2023-11-21T06:54:59;65.35;;;25.08;;
63005;SDS011;53704;52.532;6.426;2023-11-21T06:57:25;52.20;;;23.05;;
63005;SDS011;53704;52.532;6.426;2023-11-21T06:59:50;81.20;;;24.92;;
63005;SDS011;53704;52.532;6.426;2023-11-21T07:02:16;72.35;;;24.90;;
63005;SDS011;53704;52.532;6.426;2023-11-21T07:04:46;70.05;;;25.38;;
63005;SDS011;53704;52.532;6.426;2023-11-21T07:07:12;62.25;;;23.55;;
63005;SDS011;53704;52.532;6.426;2023-11-21T07:09:38;73.97;;;25.80;;
63005;SDS011;53704;52.532;6.426;2023-11-21T07:12:04;88.03;;;26.80;;
63005;SDS011;53704;52.532;6.426;2023-11-21T07:14:35;69.03;;;25.15;;
63005;SDS011;53704;52.532;6.426;2023-11-21T07:17:00;52.13;;;22.30;;
63005;SDS011;53704;52.532;6.426;2023-11-21T07:19:26;46.38;;;21.90;;
63005;SDS011;53704;52.532;6.426;2023-11-21T07:21:51;84.72;;;24.50;;
63005;SDS011;53704;52.532;6.426;2023-11-21T07:24:17;69.05;;;24.58;;
63005;SDS011;53704;52.532;6.426;2023-11-21T07:26:43;91.15;;;28.33;;
63005;SDS011;53704;52.532;6.426;2023-11-21T07:29:08;71.47;;;27.40;;
63005;SDS011;53704;52.532;6.426;2023-11-21T07:31:34;87.78;;;28.30;;
63005;SDS011;53704;52.532;6.426;2023-11-21T07:33:59;86.65;;;28.08;;
63005;SDS011;53704;52.532;6.426;2023-11-21T07:36:26;75.70;;;28.38;;
63005;SDS011;53704;52.532;6.426;2023-11-21T07:38:52;71.68;;;25.98;;
63005;SDS011;53704;52.532;6.426;2023-11-21T07:41:18;59.03;;;25.52;;
63005;SDS011;53704;52.532;6.426;2023-11-21T07:43:44;69.82;;;27.02;;
63005;SDS011;53704;52.532;6.426;2023-11-21T07:46:11;82.40;;;26.00;;
63005;SDS011;53704;52.532;6.426;2023-11-21T07:48:40;72.40;;;27.45;;
63005;SDS011;53704;52.532;6.426;2023-11-21T07:51:07;67.82;;;28.17;;
63005;SDS011;53704;52.532;6.426;2023-11-21T07:53:33;81.43;;;27.20;;
63005;SDS011;53704;52.532;6.426;2023-11-21T07:56:03;75.40;;;27.48;;
63005;SDS011;53704;52.532;6.426;2023-11-21T07:58:29;89.65;;;27.83;;
63005;SDS011;53704;52.532;6.426;2023-11-21T08:00:55;83.85;;;29.88;;
63005;SDS011;53704;52.532;6.426;2023-11-21T08:03:21;73.95;;;29.40;;
63005;SDS011;53704;52.532;6.426;2023-11-21T08:05:47;98.32;;;29.50;;
63005;SDS011;53704;52.532;6.426;2023-11-21T08:08:12;89.72;;;29.73;;
63005;SDS011;53704;52.532;6.426;2023-11-21T08:10:38;85.50;;;27.52;;
63005;SDS011;53704;52.532;6.426;2023-11-21T08:13:07;86.97;;;27.40;;
63005;SDS011;53704;52.532;6.426;2023-11-21T08:15:34;89.53;;;29.88;;
63005;SDS011;53704;52.532;6.426;2023-11-21T08:18:00;75.55;;;29.75;;
63005;SDS011;53704;52.532;6.426;2023-11-21T08:20:26;72.10;;;27.63;;
63005;SDS011;53704;52.532;6.426;2023-11-21T08:22:51;89.40;;;30.10;;
63005;SDS011;53704;52.532;6.426;2023-11-21T08:25:17;85.07;;;28.50;;
63005;SDS011;53704;52.532;6.426;2023-11-21T08:27:45;78.50;;;27.33;;
63005;SDS011;53704;52.532;6.426;2023-11-21T08:30:11;68.95;;;26.67;;
63005;SDS011;53704;52.532;6.426;2023-11-21T08:32:37;83.18;;;27.88;;
63005;SDS011;53704;52.532;6.426;2023-11-21T08:35:03;70.22;;;27.98;;
63005;SDS011;53704;52.532;6.426;2023-11-21T08:37:30;81.25;;;26.95;;
63005;SDS011;53704;52.532;6.426;2023-11-21T08:39:58;68.53;;;24.85;;
63005;SDS011;53704;52.532;6.426;2023-11-21T08:42:27;74.97;;;26.55;;
63005;SDS011;53704;52.532;6.426;2023-11-21T08:44:55;86.20;;;27.67;;
63005;SDS011;53704;52.532;6.426;2023-11-21T08:47:23;92.78;;;28.00;;
63005;SDS011;53704;52.532;6.426;2023-11-21T08:49:49;85.65;;;29.60;;
63005;SDS011;53704;52.532;6.426;2023-11-21T08:52:18;95.15;;;30.70;;
63005;SDS011;53704;52.532;6.426;2023-11-21T08:54:45;86.07;;;30.63;;
63005;SDS011;53704;52.532;6.426;2023-11-21T08:57:11;100.80;;;31.05;;
63005;SDS011;53704;52.532;6.426;2023-11-21T08:59:37;91.35;;;30.77;;
63005;SDS011;53704;52.532;6.426;2023-11-21T09:02:02;71.35;;;27.17;;
63005;SDS011;53704;52.532;6.426;2023-11-21T09:04:27;67.38;;;26.95;;
63005;SDS011;53704;52.532;6.426;2023-11-21T09:06:53;66.95;;;26.15;;
63005;SDS011;53704;52.532;6.426;2023-11-21T09:09:19;54.30;;;25.15;;
63005;SDS011;53704;52.532;6.426;2023-11-21T09:11:44;44.65;;;21.85;;
63005;SDS011;53704;52.532;6.426;2023-11-21T09:14:11;41.58;;;21.52;;
63005;SDS011;53704;52.532;6.426;2023-11-21T09:16:38;42.50;;;21.08;;
63005;SDS011;53704;52.532;6.426;2023-11-21T09:19:04;46.33;;;20.25;;
63005;SDS011;53704;52.532;6.426;2023-11-21T09:21:30;43.45;;;21.45;;
63005;SDS011;53704;52.532;6.426;2023-11-21T09:23:56;46.90;;;21.90;;
63005;SDS011;53704;52.532;6.426;2023-11-21T09:26:21;42.25;;;20.85;;
63005;SDS011;53704;52.532;6.426;2023-11-21T09:28:47;41.97;;;21.38;;
63005;SDS011;53704;52.532;6.426;2023-11-21T09:31:13;47.88;;;20.75;;
63005;SDS011;53704;52.532;6.426;2023-11-21T09:33:44;45.85;;;22.08;;
63005;SDS011;53704;52.532;6.426;2023-11-21T09:36:12;46.50;;;22.25;;
63005;SDS011;53704;52.532;6.426;2023-11-21T09:38:42;41.10;;;21.10;;
63005;SDS011;53704;52.532;6.426;2023-11-21T09:41:43;45.25;;;21.42;;
63005;SDS011;53704;52.532;6.426;2023-11-21T09:44:12;41.67;;;20.27;;
63005;SDS011;53704;52.532;6.426;2023-11-21T09:46:42;39.30;;;18.80;;
63005;SDS011;53704;52.532;6.426;2023-11-21T09:49:11;40.13;;;19.92;;
63005;SDS011;53704;52.532;6.426;2023-11-21T09:51:39;42.08;;;21.25;;
63005;SDS011;53704;52.532;6.426;2023-11-21T09:54:07;42.95;;;21.20;;
63005;SDS011;53704;52.532;6.426;2023-11-21T09:56:35;41.25;;;22.80;;
63005;SDS011;53704;52.532;6.426;2023-11-21T09:59:02;44.80;;;21.60;;
63005;SDS011;53704;52.532;6.426;2023-11-21T10:01:34;43.67;;;24.02;;
63005;SDS011;53704;52.532;6.426;2023-11-21T10:04:02;36.38;;;20.90;;
63005;SDS011;53704;52.532;6.426;2023-11-21T10:06:28;43.50;;;22.50;;
63005;SDS011;53704;52.532;6.426;2023-11-21T10:08:55;45.92;;;22.35;;
63005;SDS011;53704;52.532;6.426;2023-11-21T10:11:27;44.25;;;21.83;;
63005;SDS011;53704;52.532;6.426;2023-11-21T10:13:55;42.42;;;23.05;;
63005;SDS011;53704;52.532;6.426;2023-11-21T10:16:22;33.40;;;21.15;;
63005;SDS011;53704;52.532;6.426;2023-11-21T10:18:51;39.53;;;22.30;;
63005;SDS011;53704;52.532;6.426;2023-11-21T10:21:19;37.08;;;20.65;;
63005;SDS011;53704;52.532;6.426;2023-11-21T10:23:45;37.45;;;20.92;;
63005;SDS011;53704;52.532;6.426;2023-11-21T10:26:11;34.55;;;20.52;;
63005;SDS011;53704;52.532;6.426;2023-11-21T10:28:59;33.90;;;18.63;;
63005;SDS011;53704;52.532;6.426;2023-11-21T10:31:28;32.45;;;20.15;;
63005;SDS011;53704;52.532;6.426;2023-11-21T10:33:57;40.58;;;21.83;;
63005;SDS011;53704;52.532;6.426;2023-11-21T10:36:39;42.72;;;19.95;;
63005;SDS011;53704;52.532;6.426;2023-11-21T10:39:04;35.45;;;19.13;;
63005;SDS011;53704;52.532;6.426;2023-11-21T10:41:30;35.78;;;18.13;;
63005;SDS011;53704;52.532;6.426;2023-11-21T10:43:55;52.38;;;18.50;;
63005;SDS011;53704;52.532;6.426;2023-11-21T10:46:21;42.45;;;18.73;;
63005;SDS011;53704;52.532;6.426;2023-11-21T10:48:57;55.38;;;21.45;;
63005;SDS011;53704;52.532;6.426;2023-11-21T10:51:23;67.32;;;21.23;;
63005;SDS011;53704;52.532;6.426;2023-11-21T10:53:51;40.28;;;18.25;;
63005;SDS011;53704;52.532;6.426;2023-11-21T10:56:17;62.70;;;22.02;;
63005;SDS011;53704;52.532;6.426;2023-11-21T10:58:48;54.78;;;21.38;;
63005;SDS011;53704;52.532;6.426;2023-11-21T11:01:14;46.45;;;18.60;;
63005;SDS011;53704;52.532;6.426;2023-11-21T11:03:43;50.05;;;22.23;;
63005;SDS011;53704;52.532;6.426;2023-11-21T11:06:10;49.80;;;22.25;;
63005;SDS011;53704;52.532;6.426;2023-11-21T11:08:37;56.80;;;24.10;;
63005;SDS011;53704;52.532;6.426;2023-11-21T11:11:04;57.67;;;23.70;;
63005;SDS011;53704;52.532;6.426;2023-11-21T11:13:30;59.15;;;25.92;;
63005;SDS011;53704;52.532;6.426;2023-11-21T11:16:00;63.80;;;26.80;;
63005;SDS011;53704;52.532;6.426;2023-11-21T11:18:32;60.17;;;27.00;;
63005;SDS011;53704;52.532;6.426;2023-11-21T11:21:11;54.58;;;25.58;;
63005;SDS011;53704;52.532;6.426;2023-11-21T11:24:02;57.78;;;25.58;;
63005;SDS011;53704;52.532;6.426;2023-11-21T11:34:33;64.82;;;25.48;;
63005;SDS011;53704;52.532;6.426;2023-11-21T11:37:07;45.40;;;24.13;;
63005;SDS011;53704;52.532;6.426;2023-11-21T11:39:36;54.88;;;26.38;;
63005;SDS011;53704;52.532;6.426;2023-11-21T11:42:04;50.58;;;24.83;;
63005;SDS011;53704;52.532;6.426;2023-11-21T11:47:14;41.88;;;22.73;;
63005;SDS011;53704;52.532;6.426;2023-11-21T11:55:14;44.92;;;23.58;;
63005;SDS011;53704;52.532;6.426;2023-11-21T11:57:44;42.53;;;23.38;;
63005;SDS011;53704;52.532;6.426;2023-11-21T12:02:41;37.63;;;23.42;;
63005;SDS011;53704;52.532;6.426;2023-11-21T12:05:12;34.50;;;21.70;;
63005;SDS011;53704;52.532;6.426;2023-11-21T12:07:43;34.03;;;22.00;;
63005;SDS011;53704;52.532;6.426;2023-11-21T12:10:11;33.70;;;20.52;;
63005;SDS011;53704;52.532;6.426;2023-11-21T12:12:47;36.42;;;22.50;;
63005;SDS011;53704;52.532;6.426;2023-11-21T12:15:17;34.38;;;20.80;;
63005;SDS011;53704;52.532;6.426;2023-11-21T12:17:44;28.17;;;20.17;;
63005;SDS011;53704;52.532;6.426;2023-11-21T12:20:11;35.72;;;21.08;;
63005;SDS011;53704;52.532;6.426;2023-11-21T12:22:46;21.13;;;16.63;;
63005;SDS011;53704;52.532;6.426;2023-11-21T12:25:16;18.27;;;14.57;;
63005;SDS011;53704;52.532;6.426;2023-11-21T12:27:44;25.17;;;15.90;;
63005;SDS011;53704;52.532;6.426;2023-11-21T12:30:18;20.33;;;14.70;;
63005;SDS011;53704;52.532;6.426;2023-11-21T12:32:48;16.25;;;14.55;;
63005;SDS011;53704;52.532;6.426;2023-11-21T12:35:18;14.52;;;13.02;;
63005;SDS011;53704;52.532;6.426;2023-11-21T12:37:45;14.15;;;12.73;;
63005;SDS011;53704;52.532;6.426;2023-11-21T12:40:12;13.55;;;12.25;;
63005;SDS011;53704;52.532;6.426;2023-11-21T12:42:46;15.02;;;11.50;;
63005;SDS011;53704;52.532;6.426;2023-11-21T12:47:45;11.63;;;10.57;;
63005;SDS011;53704;52.532;6.426;2023-11-21T12:50:18;15.60;;;10.88;;
63005;SDS011;53704;52.532;6.426;2023-11-21T12:52:47;16.48;;;10.63;;
63005;SDS011;53704;52.532;6.426;2023-11-21T12:55:19;11.40;;;9.90;;
63005;SDS011;53704;52.532;6.426;2023-11-21T12:57:48;15.52;;;11.02;;
63005;SDS011;53704;52.532;6.426;2023-11-21T13:00:17;12.55;;;11.23;;
63005;SDS011;53704;52.532;6.426;2023-11-21T13:02:57;11.98;;;10.82;;
63005;SDS011;53704;52.532;6.426;2023-11-21T13:05:56;12.27;;;11.05;;
63005;SDS011;53704;52.532;6.426;2023-11-21T13:08:20;13.52;;;10.57;;
63005;SDS011;53704;52.532;6.426;2023-11-21T13:10:54;11.57;;;10.48;;
63005;SDS011;53704;52.532;6.426;2023-11-21T13:13:21;12.20;;;11.10;;
63005;SDS011;53704;52.532;6.426;2023-11-21T13:15:54;12.98;;;10.25;;
63005;SDS011;53704;52.532;6.426;2023-11-21T13:18:26;14.27;;;10.95;;
63005;SDS011;53704;52.532;6.426;2023-11-21T13:20:53;11.48;;;10.48;;
63005;SDS011;53704;52.532;6.426;2023-11-21T13:23:20;10.93;;;10.00;;
63005;SDS011;53704;52.532;6.426;2023-11-21T13:25:47;11.55;;;9.80;;
63005;SDS011;53704;52.532;6.426;2023-11-21T13:28:14;11.45;;;10.25;;
63005;SDS011;53704;52.532;6.426;2023-11-21T13:30:40;11.35;;;10.13;;
63005;SDS011;53704;52.532;6.426;2023-11-21T13:33:07;12.80;;;9.25;;
63005;SDS011;53704;52.532;6.426;2023-11-21T13:35:37;11.15;;;10.05;;
63005;SDS011;53704;52.532;6.426;2023-11-21T13:38:07;10.70;;;9.70;;
63005;SDS011;53704;52.532;6.426;2023-11-21T13:40:34;10.23;;;9.43;;
63005;SDS011;53704;52.532;6.426;2023-11-21T13:43:12;9.70;;;8.80;;
63005;SDS011;53704;52.532;6.426;2023-11-21T13:45:38;10.57;;;9.57;;
63005;SDS011;53704;52.532;6.426;2023-11-21T13:48:08;11.05;;;10.00;;
63005;SDS011;53704;52.532;6.426;2023-11-21T13:50:41;11.68;;;10.43;;
63005;SDS011;53704;52.532;6.426;2023-11-21T13:53:23;11.43;;;10.18;;
63005;SDS011;53704;52.532;6.426;2023-11-21T13:55:49;10.45;;;9.43;;
63005;SDS011;53704;52.532;6.426;2023-11-21T13:58:16;20.92;;;9.90;;
63005;SDS011;53704;52.532;6.426;2023-11-21T14:00:48;13.70;;;10.65;;
63005;SDS011;53704;52.532;6.426;2023-11-21T14:03:21;18.45;;;9.57;;
63005;SDS011;53704;52.532;6.426;2023-11-21T14:05:57;12.98;;;8.25;;
63005;SDS011;53704;52.532;6.426;2023-11-21T14:08:25;10.48;;;8.18;;
63005;SDS011;53704;52.532;6.426;2023-11-21T14:10:54;17.02;;;9.80;;
63005;SDS011;53704;52.532;6.426;2023-11-21T14:13:24;9.20;;;8.38;;
63005;SDS011;53704;52.532;6.426;2023-11-21T14:15:50;10.05;;;9.25;;
63005;SDS011;53704;52.532;6.426;2023-11-21T14:18:23;11.57;;;8.65;;
63005;SDS011;53704;52.532;6.426;2023-11-21T14:20:56;17.83;;;9.33;;
63005;SDS011;53704;52.532;6.426;2023-11-21T14:23:22;10.02;;;9.18;;
63005;SDS011;53704;52.532;6.426;2023-11-21T14:25:48;11.00;;;9.93;;
63005;SDS011;53704;52.532;6.426;2023-11-21T14:28:15;10.75;;;9.43;;
63005;SDS011;53704;52.532;6.426;2023-11-21T14:30:41;11.32;;;9.95;;
63005;SDS011;53704;52.532;6.426;2023-11-21T14:33:07;10.00;;;9.20;;
63005;SDS011;53704;52.532;6.426;2023-11-21T14:35:35;14.82;;;9.85;;
63005;SDS011;53704;52.532;6.426;2023-11-21T14:38:01;11.18;;;9.95;;
63005;SDS011;53704;52.532;6.426;2023-11-21T14:40:30;10.10;;;9.25;;
63005;SDS011;53704;52.532;6.426;2023-11-21T14:43:00;13.65;;;9.15;;
63005;SDS011;53704;52.532;6.426;2023-11-21T14:45:30;9.85;;;8.95;;
63005;SDS011;53704;52.532;6.426;2023-11-21T14:47:56;10.43;;;9.48;;